createdAt,value
2018-01-28T00:00:17.053Z,54.12
2018-01-28T00:01:19.748Z,54.14
2018-01-28T00:02:22.387Z,54.07
2018-01-28T00:03:24.863Z,54.12
2018-01-28T00:04:27.366Z,54.09
2018-01-28T00:05:29.836Z,54.09
2018-01-28T00:06:32.323Z,54.17
2018-01-28T00:07:34.804Z,54.19
2018-01-28T00:08:37.267Z,54.24
2018-01-28T00:09:39.751Z,54.21
2018-01-28T00:11:44.008Z,54.16
2018-01-28T00:12:46.502Z,54.19
2018-01-28T00:13:48.961Z,54.35
2018-01-28T00:14:51.470Z,54.33
2018-01-28T00:15:53.949Z,54.30
2018-01-28T00:16:56.436Z,54.38
2018-01-28T00:17:59.006Z,54.28
2018-01-28T00:19:01.485Z,54.20
2018-01-28T00:20:03.997Z,54.19
2018-01-28T00:21:06.458Z,54.18
2018-01-28T00:22:08.933Z,54.18
2018-01-28T00:23:11.397Z,54.28
2018-01-28T00:24:13.863Z,54.30
2018-01-28T00:25:16.360Z,54.39
2018-01-28T00:26:18.839Z,54.40
2018-01-28T00:27:21.313Z,54.58
2018-01-28T00:28:23.809Z,54.64
2018-01-28T00:29:26.271Z,54.78
2018-01-28T00:30:28.756Z,54.80
2018-01-28T00:31:31.218Z,54.92
2018-01-28T00:32:33.712Z,55.04
2018-01-28T00:33:36.182Z,55.11
2018-01-28T00:34:38.656Z,55.20
2018-01-28T00:35:41.138Z,55.28
2018-01-28T00:36:43.599Z,55.36
2018-01-28T00:37:46.059Z,55.48
2018-01-28T00:38:48.522Z,55.52
2018-01-28T00:39:50.986Z,55.58
2018-01-28T00:40:53.480Z,55.67
2018-01-28T00:41:55.989Z,55.69
2018-01-28T00:42:58.468Z,55.69
2018-01-28T00:44:01.019Z,55.75
2018-01-28T00:45:03.483Z,55.80
2018-01-28T00:46:05.989Z,55.80
2018-01-28T00:47:08.452Z,55.77
2018-01-28T00:48:10.914Z,55.62
2018-01-28T00:49:13.397Z,55.67
2018-01-28T00:50:15.873Z,55.57
2018-01-28T00:51:18.358Z,55.46
2018-01-28T00:52:20.832Z,55.35
2018-01-28T00:53:23.339Z,55.39
2018-01-28T00:54:25.794Z,55.09
2018-01-28T00:55:28.273Z,55.06
2018-01-28T00:56:30.755Z,55.00
2018-01-28T00:57:33.210Z,54.93
2018-01-28T00:58:35.667Z,54.93
2018-01-28T00:59:38.126Z,54.77
2018-01-28T01:00:40.606Z,54.78
2018-01-28T01:01:43.099Z,54.58
2018-01-28T01:02:45.571Z,54.78
2018-01-28T01:03:48.045Z,54.51
2018-01-28T01:04:50.506Z,54.60
2018-01-28T01:05:52.966Z,54.59
2018-01-28T01:06:55.460Z,54.65
2018-01-28T01:07:57.922Z,54.68
2018-01-28T01:09:00.401Z,54.88
2018-01-28T01:10:02.864Z,55.01
2018-01-28T01:11:05.337Z,55.22
2018-01-28T01:12:07.823Z,55.24
2018-01-28T01:13:10.287Z,55.30
2018-01-28T01:14:12.769Z,55.38
2018-01-28T01:15:15.231Z,55.45
2018-01-28T01:16:17.698Z,55.66
2018-01-28T01:17:20.196Z,55.68
2018-01-28T01:18:22.655Z,55.90
2018-01-28T01:19:25.123Z,55.89
2018-01-28T01:20:27.582Z,55.96
2018-01-28T01:21:30.057Z,56.14
2018-01-28T01:22:32.549Z,56.01
2018-01-28T01:23:35.024Z,56.10
2018-01-28T01:24:37.509Z,56.14
2018-01-28T01:25:39.984Z,56.26
2018-01-28T01:26:42.441Z,56.21
2018-01-28T01:27:44.936Z,56.17
2018-01-28T01:29:49.181Z,55.92
2018-01-28T01:30:51.660Z,55.84
2018-01-28T01:31:54.123Z,55.88
2018-01-28T01:32:56.665Z,56.21
2018-01-28T01:33:59.099Z,56.46
2018-01-28T01:35:01.573Z,56.28
2018-01-28T01:36:04.042Z,56.21
2018-01-28T01:37:06.516Z,56.33
2018-01-28T01:38:09.013Z,56.42
2018-01-28T01:39:11.487Z,56.60
2018-01-28T01:40:13.942Z,56.65
2018-01-28T01:41:16.411Z,56.77
2018-01-28T01:42:18.870Z,56.65
2018-01-28T01:43:21.364Z,56.72
2018-01-28T01:44:23.827Z,56.88
2018-01-28T01:45:26.309Z,56.76
2018-01-28T01:46:28.785Z,56.60
2018-01-28T01:47:31.247Z,56.90
2018-01-28T01:48:33.726Z,56.81
2018-01-28T01:49:36.205Z,56.70
2018-01-28T01:50:38.677Z,56.66
2018-01-28T01:51:41.152Z,56.54
2018-01-28T01:52:43.625Z,56.51
2018-01-28T01:53:46.121Z,56.46
2018-01-28T01:54:48.602Z,56.30
2018-01-28T01:55:51.062Z,56.25
2018-01-28T01:56:53.527Z,56.44
2018-01-28T01:57:56.000Z,56.35
2018-01-28T01:58:58.509Z,56.33
2018-01-28T02:00:00.975Z,56.37
2018-01-28T02:01:03.449Z,56.35
2018-01-28T02:02:05.935Z,56.56
2018-01-28T02:03:08.409Z,56.60
2018-01-28T02:04:10.906Z,56.48
2018-01-28T02:05:13.381Z,56.39
2018-01-28T02:06:15.847Z,56.38
2018-01-28T02:07:18.325Z,56.42
2018-01-28T02:08:20.787Z,56.50
2018-01-28T02:09:23.296Z,56.55
2018-01-28T02:10:25.768Z,56.51
2018-01-28T02:11:28.232Z,56.66
2018-01-28T02:12:30.713Z,56.58
2018-01-28T02:13:33.209Z,56.60
2018-01-28T02:14:35.690Z,56.97
2018-01-28T02:15:38.184Z,56.92
2018-01-28T02:16:40.671Z,56.89
2018-01-28T02:17:43.149Z,56.84
2018-01-28T02:18:45.666Z,56.93
2018-01-28T02:19:48.159Z,56.81
2018-01-28T02:20:50.622Z,56.81
2018-01-28T02:21:53.100Z,56.71
2018-01-28T02:22:55.573Z,56.76
2018-01-28T02:23:58.061Z,56.90
2018-01-28T02:25:00.557Z,56.78
2018-01-28T02:26:03.023Z,56.83
2018-01-28T02:27:05.493Z,57.00
2018-01-28T02:28:07.973Z,56.89
2018-01-28T02:29:10.449Z,56.86
2018-01-28T02:30:12.952Z,56.83
2018-01-28T02:31:15.436Z,56.89
2018-01-28T02:32:17.930Z,56.92
2018-01-28T02:33:20.392Z,56.91
2018-01-28T02:34:22.863Z,57.12
2018-01-28T02:35:25.370Z,57.25
2018-01-28T02:36:27.836Z,57.42
2018-01-28T02:37:30.317Z,57.38
2018-01-28T02:38:32.802Z,57.31
2018-01-28T02:39:35.281Z,57.21
2018-01-28T02:40:37.766Z,57.13
2018-01-28T02:41:40.235Z,57.05
2018-01-28T02:42:42.702Z,56.88
2018-01-28T02:43:45.163Z,56.89
2018-01-28T02:44:47.644Z,56.69
2018-01-28T02:45:50.126Z,56.58
2018-01-28T02:46:52.586Z,56.71
2018-01-28T02:47:55.060Z,56.71
2018-01-28T02:48:57.537Z,56.73
2018-01-28T02:50:00.029Z,56.55
2018-01-28T02:51:02.529Z,56.76
2018-01-28T02:52:04.996Z,56.76
2018-01-28T02:53:07.467Z,56.85
2018-01-28T02:54:09.940Z,56.83
2018-01-28T02:55:12.414Z,56.70
2018-01-28T02:56:14.916Z,56.90
2018-01-28T02:57:17.392Z,56.84
2018-01-28T02:58:19.854Z,56.87
2018-01-28T02:59:22.332Z,56.97
2018-01-28T03:00:24.794Z,56.82
2018-01-28T03:01:27.305Z,56.83
2018-01-28T03:02:29.777Z,56.92
2018-01-28T03:03:32.240Z,56.92
2018-01-28T03:04:34.711Z,57.28
2018-01-28T03:05:37.177Z,57.24
2018-01-28T03:06:39.662Z,57.85
2018-01-28T03:07:42.124Z,57.82
2018-01-28T03:08:44.587Z,56.24
2018-01-28T03:09:47.058Z,54.55
2018-01-28T03:10:49.519Z,55.26
2018-01-28T03:11:52.013Z,54.13
2018-01-28T03:12:54.488Z,53.10
2018-01-28T03:13:56.950Z,54.12
2018-01-28T03:14:59.424Z,55.29
2018-01-28T03:16:01.905Z,54.97
2018-01-28T03:17:04.400Z,55.27
2018-01-28T03:18:06.868Z,55.17
2018-01-28T03:19:09.331Z,54.75
2018-01-28T03:20:11.809Z,54.24
2018-01-28T03:21:14.271Z,53.74
2018-01-28T03:22:16.772Z,53.53
2018-01-28T03:23:19.247Z,54.06
2018-01-28T03:24:21.721Z,53.98
2018-01-28T03:25:24.178Z,52.73
2018-01-28T03:26:26.634Z,51.84
2018-01-28T03:27:29.132Z,52.46
2018-01-28T03:28:31.791Z,52.25
2018-01-28T03:29:34.254Z,52.44
2018-01-28T03:30:36.719Z,52.37
2018-01-28T03:31:39.178Z,52.73
2018-01-28T03:32:41.673Z,52.59
2018-01-28T03:33:44.143Z,53.22
2018-01-28T03:34:46.640Z,53.19
2018-01-28T03:35:49.112Z,53.42
2018-01-28T03:36:51.594Z,54.07
2018-01-28T03:37:54.072Z,54.26
2018-01-28T03:38:56.534Z,54.44
2018-01-28T03:39:59.002Z,54.51
2018-01-28T03:41:01.477Z,54.84
2018-01-28T03:42:03.938Z,55.11
2018-01-28T03:43:06.418Z,55.23
2018-01-28T03:44:08.889Z,55.32
2018-01-28T03:45:11.346Z,55.47
2018-01-28T03:46:13.806Z,55.68
2018-01-28T03:47:16.277Z,55.92
2018-01-28T03:48:18.782Z,55.97
2018-01-28T03:49:21.259Z,55.97
2018-01-28T03:50:23.722Z,56.12
2018-01-28T03:51:26.194Z,56.29
2018-01-28T03:52:28.659Z,56.43
2018-01-28T03:53:31.152Z,56.46
2018-01-28T03:54:33.624Z,56.54
2018-01-28T03:55:36.101Z,56.56
2018-01-28T03:56:38.589Z,56.68
2018-01-28T03:57:41.050Z,56.80
2018-01-28T03:58:43.535Z,56.95
2018-01-28T03:59:46.004Z,56.95
2018-01-28T04:00:48.485Z,56.88
2018-01-28T04:01:50.951Z,56.83
2018-01-28T04:02:53.412Z,56.85
2018-01-28T04:03:55.890Z,56.90
2018-01-28T04:04:58.360Z,56.97
2018-01-28T04:06:00.832Z,57.24
2018-01-28T04:07:03.294Z,57.55
2018-01-28T04:08:05.829Z,57.74
2018-01-28T04:09:08.333Z,57.91
2018-01-28T04:10:10.795Z,58.04
2018-01-28T04:11:13.307Z,58.11
2018-01-28T04:12:15.762Z,58.11
2018-01-28T04:13:18.240Z,58.02
2018-01-28T04:14:20.722Z,58.20
2018-01-28T04:15:23.182Z,58.26
2018-01-28T04:16:27.439Z,58.27
2018-01-28T04:17:29.898Z,58.31
2018-01-28T04:18:32.378Z,58.21
2018-01-28T04:19:34.867Z,58.21
2018-01-28T04:20:37.348Z,58.06
2018-01-28T04:21:39.811Z,58.04
2018-01-28T04:22:42.337Z,58.05
2018-01-28T04:23:44.813Z,58.13
2018-01-28T04:24:47.309Z,58.36
2018-01-28T04:25:49.780Z,58.57
2018-01-28T04:26:52.265Z,58.69
2018-01-28T04:27:54.742Z,58.68
2018-01-28T04:28:57.222Z,58.76
2018-01-28T04:29:59.704Z,58.83
2018-01-28T04:31:02.175Z,58.83
2018-01-28T04:32:04.661Z,58.81
2018-01-28T04:33:07.136Z,58.73
2018-01-28T04:34:09.609Z,58.65
2018-01-28T04:35:12.113Z,58.60
2018-01-28T04:36:14.588Z,58.59
2018-01-28T04:37:17.061Z,58.66
2018-01-28T04:38:19.526Z,58.61
2018-01-28T04:39:22.016Z,58.56
2018-01-28T04:40:24.504Z,58.56
2018-01-28T04:41:26.991Z,58.52
2018-01-28T04:42:29.464Z,58.55
2018-01-28T04:43:31.936Z,58.52
2018-01-28T04:44:34.416Z,58.61
2018-01-28T04:45:36.899Z,58.71
2018-01-28T04:46:39.372Z,58.91
2018-01-28T04:47:41.845Z,58.95
2018-01-28T04:48:44.320Z,58.94
2018-01-28T04:49:46.778Z,58.95
2018-01-28T04:50:49.277Z,58.96
2018-01-28T04:51:51.742Z,59.06
2018-01-28T04:52:54.224Z,59.07
2018-01-28T04:53:56.700Z,59.17
2018-01-28T04:54:59.162Z,59.11
2018-01-28T04:56:01.634Z,59.15
2018-01-28T04:57:04.094Z,59.18
2018-01-28T04:58:06.569Z,59.21
2018-01-28T04:59:09.443Z,59.24
2018-01-28T05:00:11.906Z,59.35
2018-01-28T05:01:14.396Z,59.36
2018-01-28T05:02:16.856Z,59.41
2018-01-28T05:03:19.329Z,59.38
2018-01-28T05:04:21.805Z,59.36
2018-01-28T05:05:24.285Z,59.34
2018-01-28T05:06:26.770Z,59.40
2018-01-28T05:07:29.232Z,59.53
2018-01-28T05:08:31.708Z,59.67
2018-01-28T05:09:34.171Z,59.61
2018-01-28T05:10:36.686Z,59.61
2018-01-28T05:11:39.171Z,59.67
2018-01-28T05:12:41.635Z,59.76
2018-01-28T05:13:44.112Z,59.78
2018-01-28T05:14:46.582Z,59.84
2018-01-28T05:15:49.052Z,59.87
2018-01-28T05:16:51.534Z,59.95
2018-01-28T05:17:54.010Z,59.87
2018-01-28T05:18:56.488Z,59.80
2018-01-28T05:19:58.952Z,59.88
2018-01-28T05:21:01.428Z,59.94
2018-01-28T05:22:03.925Z,59.96
2018-01-28T05:23:06.400Z,60.03
2018-01-28T05:24:08.877Z,60.10
2018-01-28T05:25:11.359Z,60.23
2018-01-28T05:26:13.833Z,60.29
2018-01-28T05:27:16.314Z,60.30
2018-01-28T05:28:18.770Z,60.30
2018-01-28T05:29:21.240Z,60.28
2018-01-28T05:30:23.713Z,60.21
2018-01-28T05:31:26.174Z,60.32
2018-01-28T05:32:28.675Z,60.35
2018-01-28T05:33:31.142Z,60.31
2018-01-28T05:34:33.606Z,60.37
2018-01-28T05:35:36.071Z,60.25
2018-01-28T05:36:38.545Z,60.16
2018-01-28T05:37:41.040Z,60.13
2018-01-28T05:38:43.498Z,60.17
2018-01-28T05:39:45.972Z,60.26
2018-01-28T05:40:48.452Z,60.26
2018-01-28T05:41:50.927Z,60.22
2018-01-28T05:42:53.423Z,60.34
2018-01-28T05:43:55.897Z,60.37
2018-01-28T05:44:58.358Z,60.37
2018-01-28T05:46:00.834Z,60.45
2018-01-28T05:47:03.313Z,60.45
2018-01-28T05:48:05.794Z,60.47
2018-01-28T05:49:08.273Z,60.49
2018-01-28T05:50:10.739Z,60.51
2018-01-28T05:51:13.213Z,60.54
2018-01-28T05:52:15.701Z,60.49
2018-01-28T05:53:18.192Z,60.53
2018-01-28T05:54:20.671Z,60.61
2018-01-28T05:55:23.139Z,60.56
2018-01-28T05:56:25.602Z,60.56
2018-01-28T05:57:28.063Z,60.53
2018-01-28T05:58:30.561Z,60.60
2018-01-28T05:59:33.033Z,60.66
2018-01-28T06:00:35.509Z,60.71
2018-01-28T06:01:37.987Z,60.70
2018-01-28T06:02:40.447Z,60.73
2018-01-28T06:03:42.945Z,60.76
2018-01-28T06:04:45.409Z,60.69
2018-01-28T06:05:47.878Z,60.72
2018-01-28T06:06:50.333Z,60.66
2018-01-28T06:07:52.803Z,60.65
2018-01-28T06:08:55.297Z,60.69
2018-01-28T06:09:57.788Z,60.71
2018-01-28T06:11:00.251Z,60.69
2018-01-28T06:12:02.725Z,60.75
2018-01-28T06:13:05.183Z,60.89
2018-01-28T06:14:07.684Z,60.99
2018-01-28T06:15:10.205Z,60.94
2018-01-28T06:16:12.680Z,60.84
2018-01-28T06:17:15.165Z,60.93
2018-01-28T06:18:17.626Z,60.92
2018-01-28T06:19:20.111Z,60.88
2018-01-28T06:20:22.575Z,60.96
2018-01-28T06:21:25.039Z,60.89
2018-01-28T06:22:27.513Z,60.84
2018-01-28T06:23:29.974Z,60.87
2018-01-28T06:24:32.468Z,60.94
2018-01-28T06:25:34.940Z,60.97
2018-01-28T06:26:37.407Z,61.11
2018-01-28T06:27:39.867Z,61.31
2018-01-28T06:28:42.327Z,61.30
2018-01-28T06:29:44.822Z,61.25
2018-01-28T06:30:47.307Z,61.16
2018-01-28T06:31:49.762Z,61.18
2018-01-28T06:32:52.236Z,61.33
2018-01-28T06:33:54.691Z,61.24
2018-01-28T06:34:57.188Z,61.26
2018-01-28T06:35:59.661Z,61.33
2018-01-28T06:37:02.145Z,61.33
2018-01-28T06:38:04.607Z,61.28
2018-01-28T06:39:07.072Z,61.19
2018-01-28T06:40:09.578Z,61.19
2018-01-28T06:41:12.048Z,61.24
2018-01-28T06:42:14.506Z,61.31
2018-01-28T06:43:16.980Z,61.29
2018-01-28T06:44:19.447Z,61.24
2018-01-28T06:45:21.948Z,61.29
2018-01-28T06:46:24.410Z,61.36
2018-01-28T06:47:26.893Z,61.30
2018-01-28T06:48:29.397Z,61.33
2018-01-28T06:49:31.869Z,61.31
2018-01-28T06:50:34.364Z,61.21
2018-01-28T06:51:36.826Z,61.23
2018-01-28T06:52:39.296Z,61.32
2018-01-28T06:53:41.758Z,61.34
2018-01-28T06:54:44.270Z,61.23
2018-01-28T06:55:46.728Z,61.17
2018-01-28T06:56:49.197Z,61.20
2018-01-28T06:57:51.668Z,61.18
2018-01-28T06:58:54.138Z,61.18
2018-01-28T06:59:56.607Z,61.08
2018-01-28T07:00:59.090Z,61.25
2018-01-28T07:02:01.575Z,61.28
2018-01-28T07:03:04.034Z,61.30
2018-01-28T07:04:06.494Z,62.26
2018-01-28T07:05:08.964Z,62.23
2018-01-28T07:06:11.461Z,61.80
2018-01-28T07:07:13.923Z,60.55
2018-01-28T07:08:16.800Z,59.64
2018-01-28T07:09:19.272Z,58.75
2018-01-28T07:10:21.776Z,58.32
2018-01-28T07:11:24.258Z,57.63
2018-01-28T07:12:26.732Z,57.36
2018-01-28T07:13:29.216Z,56.96
2018-01-28T07:14:31.682Z,56.54
2018-01-28T07:15:34.143Z,56.38
2018-01-28T07:16:36.649Z,56.05
2018-01-28T07:17:39.130Z,55.29
2018-01-28T07:18:41.594Z,54.68
2018-01-28T07:19:44.058Z,54.56
2018-01-28T07:20:46.528Z,53.90
2018-01-28T07:21:49.012Z,53.80
2018-01-28T07:22:51.478Z,53.52
2018-01-28T07:23:53.952Z,53.45
2018-01-28T07:24:56.418Z,53.51
2018-01-28T07:25:58.893Z,53.60
2018-01-28T07:27:01.392Z,53.62
2018-01-28T07:28:03.865Z,53.69
2018-01-28T07:29:06.330Z,53.70
2018-01-28T07:30:08.832Z,53.89
2018-01-28T07:31:11.313Z,53.62
2018-01-28T07:32:13.794Z,53.73
2018-01-28T07:33:16.278Z,53.72
2018-01-28T07:34:18.754Z,53.84
2018-01-28T07:35:21.218Z,53.78
2018-01-28T07:36:23.701Z,53.61
2018-01-28T07:37:26.197Z,53.38
2018-01-28T07:38:28.658Z,53.30
2018-01-28T07:39:31.133Z,53.17
2018-01-28T07:40:33.600Z,53.25
2018-01-28T07:41:36.063Z,53.32
2018-01-28T07:42:38.547Z,53.26
2018-01-28T07:43:41.007Z,53.31
2018-01-28T07:44:43.475Z,53.29
2018-01-28T07:45:46.006Z,53.24
2018-01-28T07:46:48.483Z,53.24
2018-01-28T07:47:51.008Z,53.28
2018-01-28T07:48:53.502Z,53.25
2018-01-28T07:49:55.967Z,53.15
2018-01-28T07:50:58.445Z,53.25
2018-01-28T07:52:00.923Z,53.28
2018-01-28T07:53:03.418Z,53.24
2018-01-28T07:54:05.882Z,53.29
2018-01-28T07:55:08.360Z,53.29
2018-01-28T07:56:10.825Z,53.33
2018-01-28T07:57:13.301Z,53.38
2018-01-28T07:58:15.821Z,53.47
2018-01-28T07:59:18.309Z,53.44
2018-01-28T08:00:20.784Z,53.43
2018-01-28T08:01:23.257Z,53.34
2018-01-28T08:02:25.737Z,53.37
2018-01-28T08:03:28.245Z,53.48
2018-01-28T08:04:30.703Z,53.39
2018-01-28T08:05:33.181Z,53.39
2018-01-28T08:06:35.657Z,53.44
2018-01-28T08:07:38.119Z,53.44
2018-01-28T08:08:42.966Z,53.39
2018-01-28T08:11:32.250Z,53.47
2018-01-28T08:12:46.556Z,53.51
2018-01-28T08:13:51.460Z,53.56
2018-01-28T08:14:53.937Z,53.49
2018-01-28T08:15:56.417Z,53.49
2018-01-28T08:16:58.893Z,53.53
2018-01-28T08:18:01.368Z,53.58
2018-01-28T08:19:03.854Z,53.72
2018-01-28T08:20:06.341Z,53.90
2018-01-28T08:21:08.819Z,53.77
2018-01-28T08:22:11.312Z,53.67
2018-01-28T08:23:13.783Z,53.40
2018-01-28T08:24:16.280Z,53.00
2018-01-28T08:25:18.760Z,52.54
2018-01-28T08:26:21.240Z,52.04
2018-01-28T08:27:29.135Z,51.63
2018-01-28T08:28:33.410Z,51.07
2018-01-28T08:29:36.411Z,50.68
2018-01-28T08:30:38.949Z,50.29
2018-01-28T08:31:41.410Z,49.98
2018-01-28T08:32:43.932Z,49.77
2018-01-28T08:33:46.409Z,49.58
2018-01-28T08:34:48.932Z,49.40
2018-01-28T08:35:51.458Z,49.36
2018-01-28T08:36:53.928Z,49.35
2018-01-28T08:37:56.405Z,49.38
2018-01-28T08:38:58.866Z,49.30
2018-01-28T08:40:01.361Z,49.30
2018-01-28T08:41:03.832Z,49.30
2018-01-28T08:42:06.298Z,49.21
2018-01-28T08:43:08.773Z,49.05
2018-01-28T08:44:11.244Z,48.99
2018-01-28T08:45:13.745Z,48.84
2018-01-28T08:46:16.272Z,48.69
2018-01-28T08:47:18.734Z,48.56
2018-01-28T08:48:21.448Z,48.37
2018-01-28T08:49:23.950Z,48.31
2018-01-28T08:50:26.469Z,48.29
2018-01-28T08:51:28.945Z,48.32
2018-01-28T08:52:31.420Z,48.35
2018-01-28T08:53:33.897Z,48.41
2018-01-28T08:54:36.358Z,48.45
2018-01-28T08:55:38.842Z,48.43
2018-01-28T08:56:41.303Z,48.52
2018-01-28T08:57:43.767Z,48.62
2018-01-28T08:58:46.251Z,48.73
2018-01-28T08:59:48.721Z,48.84
2018-01-28T09:00:51.218Z,48.93
2018-01-28T09:01:53.717Z,48.96
2018-01-28T09:02:56.178Z,49.02
2018-01-28T09:03:58.721Z,48.91
2018-01-28T09:05:01.186Z,48.85
2018-01-28T09:06:03.696Z,48.69
2018-01-28T09:07:06.194Z,48.48
2018-01-28T09:08:08.681Z,48.25
2018-01-28T09:09:11.168Z,48.16
2018-01-28T09:10:13.646Z,48.03
2018-01-28T09:11:16.152Z,48.06
2018-01-28T09:12:18.630Z,47.98
2018-01-28T09:13:21.105Z,48.01
2018-01-28T09:14:23.604Z,48.02
2018-01-28T09:15:26.085Z,48.04
2018-01-28T09:16:28.581Z,48.18
2018-01-28T09:17:31.043Z,48.37
2018-01-28T09:18:33.528Z,48.46
2018-01-28T09:19:36.003Z,48.58
2018-01-28T09:20:38.494Z,48.64
2018-01-28T09:21:40.989Z,48.76
2018-01-28T09:22:43.473Z,48.86
2018-01-28T09:23:45.939Z,49.07
2018-01-28T09:24:48.407Z,49.19
2018-01-28T09:25:50.877Z,49.32
2018-01-28T09:26:53.393Z,49.43
2018-01-28T09:27:55.863Z,49.54
2018-01-28T09:28:58.429Z,49.66
2018-01-28T09:30:00.899Z,49.77
2018-01-28T09:31:03.363Z,49.84
2018-01-28T09:32:05.861Z,49.98
2018-01-28T09:33:08.463Z,50.06
2018-01-28T09:34:10.946Z,50.14
2018-01-28T09:35:13.410Z,50.25
2018-01-28T09:36:15.871Z,50.34
2018-01-28T09:37:18.972Z,50.44
2018-01-28T09:38:21.457Z,50.53
2018-01-28T09:39:23.941Z,50.65
2018-01-28T09:40:26.422Z,50.80
2018-01-28T09:41:28.911Z,50.92
2018-01-28T09:42:31.496Z,51.07
2018-01-28T09:43:34.050Z,51.14
2018-01-28T09:44:36.537Z,51.28
2018-01-28T09:45:39.018Z,51.40
2018-01-28T09:46:41.493Z,51.49
2018-01-28T09:47:43.994Z,51.57
2018-01-28T09:48:46.462Z,51.66
2018-01-28T09:49:48.927Z,51.67
2018-01-28T09:50:51.410Z,51.70
2018-01-28T09:51:53.871Z,51.87
2018-01-28T09:52:56.355Z,51.99
2018-01-28T09:53:58.831Z,52.03
2018-01-28T09:55:01.348Z,52.09
2018-01-28T09:56:03.815Z,52.12
2018-01-28T09:57:06.313Z,52.15
2018-01-28T09:58:08.817Z,52.17
2018-01-28T09:59:11.313Z,52.21
2018-01-28T10:00:13.775Z,52.26
2018-01-28T10:01:16.320Z,52.29
2018-01-28T10:02:18.809Z,52.34
2018-01-28T10:03:21.313Z,52.39
2018-01-28T10:04:23.816Z,52.38
2018-01-28T10:05:26.307Z,52.43
2018-01-28T10:06:28.783Z,52.46
2018-01-28T10:07:31.247Z,52.54
2018-01-28T10:08:33.758Z,52.60
2018-01-28T10:09:36.237Z,52.65
2018-01-28T10:10:38.721Z,52.71
2018-01-28T10:11:41.192Z,52.76
2018-01-28T10:12:43.674Z,52.77
2018-01-28T10:13:46.178Z,52.80
2018-01-28T10:14:48.677Z,52.89
2018-01-28T10:15:51.143Z,53.01
2018-01-28T10:16:53.608Z,53.04
2018-01-28T10:17:56.184Z,53.08
2018-01-28T10:18:58.977Z,53.13
2018-01-28T10:20:01.446Z,53.23
2018-01-28T10:21:03.918Z,53.32
2018-01-28T10:22:06.489Z,53.46
2018-01-28T10:23:08.974Z,53.60
2018-01-28T10:24:11.467Z,53.66
2018-01-28T10:25:13.930Z,53.78
2018-01-28T10:26:16.395Z,53.81
2018-01-28T10:27:18.858Z,53.76
2018-01-28T10:28:21.338Z,53.74
2018-01-28T10:29:23.845Z,53.81
2018-01-28T10:30:26.307Z,53.95
2018-01-28T10:31:28.780Z,54.01
2018-01-28T10:32:31.249Z,54.07
2018-01-28T10:33:33.723Z,54.30
2018-01-28T10:34:36.216Z,54.29
2018-01-28T10:35:38.721Z,54.38
2018-01-28T10:36:42.270Z,54.44
2018-01-28T10:37:44.753Z,54.52
2018-01-28T10:38:47.233Z,54.59
2018-01-28T10:39:49.740Z,54.62
2018-01-28T10:40:52.206Z,54.66
2018-01-28T10:41:54.762Z,54.71
2018-01-28T10:42:57.429Z,54.75
2018-01-28T10:43:59.976Z,54.75
2018-01-28T10:45:02.474Z,54.77
2018-01-28T10:46:04.957Z,54.76
2018-01-28T10:47:07.435Z,54.75
2018-01-28T10:48:09.922Z,54.76
2018-01-28T10:49:12.582Z,54.75
2018-01-28T10:50:15.138Z,54.76
2018-01-28T10:51:18.304Z,54.77
2018-01-28T10:52:21.692Z,54.76
2018-01-28T10:53:25.276Z,54.76
2018-01-28T10:54:27.789Z,54.74
2018-01-28T10:55:30.660Z,54.74
2018-01-28T10:56:33.135Z,54.76
2018-01-28T10:57:35.599Z,54.78
2018-01-28T10:58:38.168Z,54.79
2018-01-28T10:59:40.911Z,54.81
2018-01-28T11:00:43.489Z,54.81
2018-01-28T11:01:45.981Z,54.80
2018-01-28T11:02:48.782Z,54.81
2018-01-28T11:03:51.288Z,54.78
2018-01-28T11:04:53.816Z,54.78
2018-01-28T11:05:56.316Z,54.78
2018-01-28T11:06:58.783Z,54.78
2018-01-28T11:08:01.320Z,54.77
2018-01-28T11:09:03.797Z,54.72
2018-01-28T11:10:06.635Z,54.68
2018-01-28T11:11:09.133Z,54.63
2018-01-28T11:12:11.616Z,54.53
2018-01-28T11:13:14.123Z,54.36
2018-01-28T11:14:16.596Z,54.11
2018-01-28T11:15:19.117Z,53.93
2018-01-28T11:16:21.639Z,53.78
2018-01-28T11:17:24.121Z,53.60
2018-01-28T11:18:26.586Z,53.44
2018-01-28T11:19:29.060Z,53.38
2018-01-28T11:20:31.523Z,53.76
2018-01-28T11:21:34.033Z,53.82
2018-01-28T11:22:36.499Z,53.61
2018-01-28T11:23:39.007Z,53.55
2018-01-28T11:24:41.478Z,53.69
2018-01-28T11:25:43.948Z,53.73
2018-01-28T11:26:46.585Z,53.71
2018-01-28T11:27:49.096Z,53.69
2018-01-28T11:28:51.593Z,53.66
2018-01-28T11:29:54.077Z,53.64
2018-01-28T11:30:56.548Z,53.70
2018-01-28T11:31:59.053Z,53.78
2018-01-28T11:33:01.532Z,53.89
2018-01-28T11:34:04.040Z,53.78
2018-01-28T11:35:06.756Z,53.78
2018-01-28T11:36:10.209Z,54.07
2018-01-28T11:37:12.711Z,54.29
2018-01-28T11:38:15.189Z,54.42
2018-01-28T11:39:17.695Z,54.34
2018-01-28T11:40:20.164Z,54.35
2018-01-28T11:41:22.653Z,54.48
2018-01-28T11:42:25.222Z,54.57
2018-01-28T11:43:27.701Z,54.69
2018-01-28T11:44:30.185Z,54.69
2018-01-28T11:45:32.664Z,54.63
2018-01-28T11:46:35.150Z,54.66
2018-01-28T11:47:37.649Z,54.80
2018-01-28T11:48:40.111Z,54.95
2018-01-28T11:49:42.601Z,55.15
2018-01-28T11:50:45.092Z,55.17
2018-01-28T11:51:47.555Z,55.07
2018-01-28T11:52:50.084Z,55.11
2018-01-28T11:53:52.552Z,55.16
2018-01-28T11:54:55.036Z,55.25
2018-01-28T11:55:57.507Z,55.36
2018-01-28T11:57:00.109Z,55.38
2018-01-28T11:58:02.607Z,55.36
2018-01-28T11:59:05.126Z,55.34
2018-01-28T12:00:07.646Z,55.37
2018-01-28T12:01:10.248Z,55.18
2018-01-28T12:02:12.757Z,55.59
2018-01-28T12:03:15.777Z,55.58
2018-01-28T12:04:18.255Z,55.61
2018-01-28T12:05:20.787Z,55.67
2018-01-28T12:06:23.356Z,55.74
2018-01-28T12:07:26.095Z,55.81
2018-01-28T12:08:28.663Z,55.95
2018-01-28T12:09:31.132Z,55.80
2018-01-28T12:10:33.698Z,55.90
2018-01-28T12:11:36.170Z,55.98
2018-01-28T12:12:38.657Z,56.10
2018-01-28T12:13:41.143Z,56.09
2018-01-28T12:14:43.612Z,56.07
2018-01-28T12:15:46.100Z,56.09
2018-01-28T12:16:48.582Z,56.17
2018-01-28T12:17:51.064Z,56.16
2018-01-28T12:18:54.081Z,56.25
2018-01-28T12:19:58.328Z,56.19
2018-01-28T12:21:00.811Z,56.25
2018-01-28T12:22:03.366Z,56.16
2018-01-28T12:23:06.058Z,56.10
2018-01-28T12:24:08.694Z,56.08
2018-01-28T12:25:11.362Z,56.12
2018-01-28T12:26:13.831Z,56.13
2018-01-28T12:27:16.991Z,56.18
2018-01-28T12:28:19.488Z,56.25
2018-01-28T12:29:22.003Z,56.37
2018-01-28T12:30:24.989Z,56.42
2018-01-28T12:31:27.831Z,56.49
2018-01-28T12:32:30.912Z,56.49
2018-01-28T12:33:33.420Z,56.58
2018-01-28T12:34:36.162Z,56.61
2018-01-28T12:35:39.748Z,56.64
2018-01-28T12:36:42.250Z,56.58
2018-01-28T12:37:44.844Z,56.62
2018-01-28T12:38:47.530Z,56.66
2018-01-28T12:39:51.184Z,56.67
2018-01-28T12:40:53.718Z,56.72
2018-01-28T12:41:56.414Z,56.74
2018-01-28T12:42:58.911Z,56.67
2018-01-28T12:44:01.512Z,56.58
2018-01-28T12:45:04.064Z,56.57
2018-01-28T12:46:06.574Z,56.64
2018-01-28T12:47:09.182Z,56.66
2018-01-28T12:48:13.451Z,56.62
2018-01-28T12:49:15.989Z,56.60
2018-01-28T12:50:18.526Z,56.62
2018-01-28T12:51:21.016Z,56.63
2018-01-28T12:52:23.550Z,56.62
2018-01-28T12:53:25.991Z,56.63
2018-01-28T12:54:28.585Z,56.65
2018-01-28T12:55:31.094Z,56.66
2018-01-28T12:56:33.587Z,56.67
2018-01-28T12:57:36.234Z,56.68
2018-01-28T12:58:38.759Z,56.66
2018-01-28T12:59:41.234Z,56.71
2018-01-28T13:00:43.735Z,56.68
2018-01-28T13:01:46.226Z,56.71
2018-01-28T13:02:48.744Z,56.72
2018-01-28T13:03:51.231Z,56.75
2018-01-28T13:04:53.785Z,56.71
2018-01-28T13:05:57.618Z,56.80
2018-01-28T13:07:00.173Z,56.91
2018-01-28T13:08:02.798Z,56.90
2018-01-28T13:09:05.381Z,56.69
2018-01-28T13:10:08.021Z,56.30
2018-01-28T13:11:10.688Z,56.03
2018-01-28T13:12:13.168Z,55.75
2018-01-28T13:13:15.635Z,55.34
2018-01-28T13:14:18.161Z,54.67
2018-01-28T13:15:20.798Z,53.88
2018-01-28T13:16:23.298Z,53.34
2018-01-28T13:17:26.084Z,52.98
2018-01-28T13:18:28.563Z,52.65
2018-01-28T13:19:32.000Z,52.46
2018-01-28T13:20:34.550Z,52.15
2018-01-28T13:21:37.056Z,51.92
2018-01-28T13:22:39.530Z,51.65
2018-01-28T13:23:42.014Z,51.39
2018-01-28T13:24:44.475Z,51.14
2018-01-28T13:25:46.948Z,50.94
2018-01-28T13:26:49.454Z,51.03
2018-01-28T13:27:51.920Z,50.96
2018-01-28T13:28:54.421Z,51.10